Needles Airport
KEED : now visible

Airfield :











YOU CAN JOIN US ON...

 
LOGIN :

Register | Disclaimer

   EN    FR    IT 

 









Legend :    VFR   Marginal VFR   IFR   Intensive IFR   Very Intensive IFR
Visi :
Ceiling :
>= 8 km
>= 3000ft
5 to 8 km
1000 to 3000 ft
1500m to 5 km
500 to 1000 ft
800 to 1500m
200 to 500 ft
< 800m
< 200 ft
Symbols :   Thunderstorms  Fog  Heavy snow  Heavy precipitations  Wind > 20 kt






- Airport Elevation : 983 ft


KEED - Needles

CURRENT METAR :
  • 290556Z AUTO 23012KT 10SM CLR 31/M07 A2981 RMK AO2 SLP060 T03061067 10394 20306 51007

EXPIRED METARs :
  • 290456Z AUTO 23010KT 10SM CLR 32/M09 A2981 RMK AO2 SLP060 T03171089
  • 290356Z AUTO 20009KT 10SM CLR 34/M11 A2980 RMK AO2 SLP057 T03391106
  • 290256Z AUTO 23007KT 10SM CLR 35/M09 A2979 RMK AO2 SLP054 T03501094 55001
  • 290156Z AUTO 24009KT 10SM CLR 37/M09 A2979 RMK AO2 SLP053 T03721094

TAF KEED
Valid from the 29 at 06:00 until the 30 at 06:00 UTC


290520Z 2906/3006 23008KT P6SM SKC
FM291000 VRB05KT P6SM SKC
FM292000 21010G18KT P6SM SKC
FM300300 24008KT P6SM SKC
KZLA FIR / North America



MET'MAP, your aeronautical weather chart ! - Copyright ORBIFLY December 2007 - Disclaimer

ORBIFLY MET'MAP TEAM :

Programming & Development : Alexandra Zaïnal
Original concept : Baudouin d'Aumeries
Technical & hardware support : Manuel Goepfert
Assistance : Marc-Olivier Méhu




SOURCES & CREDITS :

   NOAA       Earth
Advisory